Time;durP1;ratioP1;P1;durP2;ratioP2;P2;SDS_P1;SDS_P2;PMS_P1;PMS_P2;Temp;Humidity;BMP_temperature;BMP_pressure;BME280_temperature;BME280_humidity;BME280_pressure;Samples;Min_cycle;Max_cycle;Signal;HPM_P1;HPM_P2
2023/07/16 00:01:07;;;;;;;5.70;5.20;;;;;;;22.70;65.38;98469.02;225745;1280;22644;-75
2023/07/16 00:06:11;;;;;;;5.90;4.90;;;;;;;22.68;65.44;98459.92;225687;1276;22541;-75
2023/07/16 00:11:18;;;;;;;5.80;4.90;;;;;;;22.65;65.56;98458.04;225774;1276;24291;-75
2023/07/16 00:16:25;;;;;;;5.40;4.90;;;;;;;22.62;65.62;98454.16;225884;1278;22550;-75
2023/07/16 00:21:28;;;;;;;6.10;4.80;;;;;;;22.59;65.55;98452.66;225642;1280;22547;-74
2023/07/16 00:26:30;;;;;;;5.30;4.90;;;;;;;22.53;65.68;98449.19;225857;1280;22568;-75
2023/07/16 00:31:33;;;;;;;6.50;5.20;;;;;;;22.44;65.87;98442.84;225647;1280;22540;-75
2023/07/16 00:36:35;;;;;;;5.40;4.90;;;;;;;22.31;66.00;98437.92;225864;1280;24251;-75
2023/07/16 00:41:46;;;;;;;6.40;5.00;;;;;;;22.20;66.25;98437.83;225824;1276;22557;-75
2023/07/16 00:46:50;;;;;;;5.50;5.00;;;;;;;22.06;66.37;98441.73;225858;1278;22539;-75
2023/07/16 00:51:54;;;;;;;5.50;4.90;;;;;;;21.91;66.53;98439.77;225680;1280;22680;-74
2023/07/16 00:57:02;;;;;;;7.40;5.40;;;;;;;21.78;66.97;98435.73;225670;1280;22559;-74
2023/07/16 01:02:10;;;;;;;5.80;5.30;;;;;;;21.64;67.16;98434.17;225827;1276;22536;-76
2023/07/16 01:07:18;;;;;;;5.40;4.90;;;;;;;21.51;67.55;98434.91;225875;1275;22537;-74
2023/07/16 01:12:22;;;;;;;7.80;5.70;;;;;;;21.38;67.70;98428.34;225633;1280;22546;-75
2023/07/16 01:17:30;;;;;;;6.10;5.50;;;;;;;21.26;68.08;98421.38;225856;1275;22557;-73
2023/07/16 01:22:48;;;;;;;5.90;5.40;;;;;;;21.15;68.43;98408.33;225671;1280;22563;-76
2023/07/16 01:28:23;;;;;;;6.10;5.60;;;;;;;21.03;68.63;98405.71;225849;1278;22543;-74
2023/07/16 01:33:32;;;;;;;6.10;5.50;;;;;;;20.95;69.00;98411.91;225885;1280;22567;-75
2023/07/16 01:38:36;;;;;;;6.40;5.40;;;;;;;20.88;69.28;98412.70;225908;1276;22747;-74
2023/07/16 01:43:38;;;;;;;7.70;5.50;;;;;;;20.80;69.51;98416.54;225789;1277;25256;-74
2023/07/16 01:48:40;;;;;;;6.30;5.70;;;;;;;20.72;69.70;98416.52;225924;1275;22536;-75
2023/07/16 01:53:43;;;;;;;6.00;5.30;;;;;;;20.64;69.94;98411.90;225788;1275;25763;-75
2023/07/16 01:58:47;;;;;;;5.20;4.80;;;;;;;20.58;70.12;98415.70;225816;1280;22542;-74
2023/07/16 02:03:50;;;;;;;7.10;6.40;;;;;;;20.52;70.44;98416.23;225708;1280;22601;-74
2023/07/16 02:08:52;;;;;;;7.70;6.80;;;;;;;20.42;70.47;98414.48;225768;1278;22561;-75
2023/07/16 02:13:57;;;;;;;10.00;8.00;;;;;;;20.30;70.65;98411.38;225899;1280;24249;-74
2023/07/16 02:18:59;;;;;;;8.80;7.90;;;;;;;20.15;70.78;98414.13;225611;1280;25068;-74
2023/07/16 02:24:01;;;;;;;9.30;8.30;;;;;;;19.97;71.22;98416.74;225830;1278;23263;-74
2023/07/16 02:29:06;;;;;;;10.00;8.10;;;;;;;19.79;71.55;98409.10;225885;1276;22551;-74
2023/07/16 02:34:24;;;;;;;10.30;8.80;;;;;;;19.60;72.04;98409.64;225689;1280;22539;-74
2023/07/16 02:39:28;;;;;;;9.20;8.30;;;;;;;19.45;72.50;98411.25;225713;1280;24220;-74
2023/07/16 02:44:31;;;;;;;10.10;9.00;;;;;;;19.32;72.87;98414.14;225787;1280;23016;-74
2023/07/16 02:49:51;;;;;;;9.60;8.50;;;;;;;19.22;73.16;98418.95;225780;1278;22536;-74
2023/07/16 02:55:19;;;;;;;10.40;9.10;;;;;;;19.11;73.69;98418.48;225822;1278;22540;-74
2023/07/16 03:00:55;;;;;;;;;;;;;;;;;;;;;
2023/07/16 03:06:54;;;;;;;10.90;9.30;;;;;;;18.94;74.27;98428.15;225834;1280;22543;-75
2023/07/16 03:11:58;;;;;;;10.60;9.60;;;;;;;18.87;74.50;98425.54;225907;1275;22549;-75
2023/07/16 03:17:03;;;;;;;9.80;8.90;;;;;;;18.80;74.66;98433.71;225844;1276;22575;-75
2023/07/16 03:22:08;;;;;;;11.30;9.50;;;;;;;18.75;74.96;98441.77;226017;1265;22558;-75
2023/07/16 03:27:10;;;;;;;12.60;11.40;;;;;;;18.70;75.25;98443.80;225713;1279;22560;-75
2023/07/16 03:32:37;;;;;;;13.70;12.10;;;;;;;18.94;75.57;98445.70;225891;1276;25236;-75
2023/07/16 03:37:54;;;;;;;12.20;11.10;;;;;;;19.38;75.34;98451.55;225926;1280;25184;-75
2023/07/16 03:43:00;;;;;;;11.80;10.60;;;;;;;19.83;74.79;98454.17;225904;1280;22544;-74
2023/07/16 03:48:02;;;;;;;12.10;10.90;;;;;;;20.22;74.29;98457.76;225780;1275;22593;-75
2023/07/16 03:53:05;;;;;;;11.50;10.40;;;;;;;20.56;73.68;98458.89;225887;1278;22636;-75
2023/07/16 03:58:08;;;;;;;12.70;11.40;;;;;;;20.80;73.10;98461.81;225791;1278;23775;-75
2023/07/16 04:03:17;;;;;;;12.00;10.80;;;;;;;20.99;73.02;98460.02;225913;1276;22532;-75
2023/07/16 04:08:20;;;;;;;12.20;10.60;;;;;;;21.17;73.04;98467.98;225920;1275;22537;-74
2023/07/16 04:13:22;;;;;;;13.10;11.80;;;;;;;21.28;72.87;98473.73;225836;1278;22536;-75
2023/07/16 04:18:33;;;;;;;13.00;11.80;;;;;;;21.40;72.84;98481.06;225804;1280;22884;-74
2023/07/16 04:23:44;;;;;;;15.50;13.90;;;;;;;21.46;72.63;98487.00;225800;1280;22552;-75
2023/07/16 04:28:46;;;;;;;18.30;16.20;;;;;;;21.46;72.64;98490.55;225910;1273;22558;-75
2023/07/16 04:33:49;;;;;;;22.50;19.20;;;;;;;21.46;72.72;98495.29;225657;1278;22747;-74
2023/07/16 04:38:51;;;;;;;28.10;23.20;;;;;;;21.43;72.60;98495.59;225831;1280;22603;-74
2023/07/16 04:43:57;;;;;;;29.00;23.90;;;;;;;21.41;72.73;98495.52;225976;1276;23660;-75
2023/07/16 04:49:07;;;;;;;33.70;23.60;;;;;;;21.46;73.04;98498.14;225929;1269;22562;-75
2023/07/16 04:54:09;;;;;;;25.10;21.30;;;;;;;21.55;73.17;98498.36;225932;1278;22567;-75
2023/07/16 04:59:11;;;;;;;16.00;14.30;;;;;;;21.69;73.29;98494.48;225765;1275;22539;-75
2023/07/16 05:04:14;;;;;;;15.40;11.80;;;;;;;21.88;73.09;98497.23;225886;1273;26021;-75
2023/07/16 05:09:20;;;;;;;12.60;11.30;;;;;;;22.09;72.98;98495.92;225801;1280;22548;-75
2023/07/16 05:14:22;;;;;;;14.80;11.60;;;;;;;22.30;72.85;98504.47;225879;1278;22563;-75
2023/07/16 05:19:28;;;;;;;22.70;17.50;;;;;;;22.49;72.65;98506.75;225982;1276;25288;-75
2023/07/16 05:24:31;;;;;;;22.40;16.10;;;;;;;22.66;72.27;98512.39;225872;1280;22540;-75
2023/07/16 05:29:33;;;;;;;17.10;15.30;;;;;;;22.84;72.35;98515.88;225759;1277;22551;-75
2023/07/16 05:34:35;;;;;;;19.30;13.70;;;;;;;23.04;72.14;98517.58;225844;1278;24404;-75
2023/07/16 05:39:38;;;;;;;8.80;7.90;;;;;;;23.27;72.06;98521.04;225848;1278;22520;-75
2023/07/16 05:44:41;;;;;;;8.90;8.00;;;;;;;23.53;71.49;98530.48;225708;1280;22539;-75
2023/07/16 05:49:43;;;;;;;9.50;8.60;;;;;;;23.81;70.86;98544.73;225978;1276;22586;-76
2023/07/16 05:54:45;;;;;;;8.90;8.10;;;;;;;24.07;70.32;98561.08;225839;1280;24390;-75
2023/07/16 05:59:48;;;;;;;8.90;8.10;;;;;;;24.34;69.57;98581.97;225917;1276;25179;-75
2023/07/16 06:04:50;;;;;;;10.20;9.30;;;;;;;24.59;68.93;98600.11;225957;1276;24279;-75
2023/07/16 06:09:52;;;;;;;9.80;9.00;;;;;;;24.82;68.28;98610.30;225956;1277;24274;-76
2023/07/16 06:14:55;;;;;;;11.20;10.10;;;;;;;25.03;67.72;98636.77;225965;1276;22550;-76
2023/07/16 06:19:57;;;;;;;10.90;9.90;;;;;;;25.25;67.38;98644.72;225773;1280;115204;-75
2023/07/16 06:25:00;;;;;;;13.00;11.90;;;;;;;25.45;66.96;98654.22;225950;1277;22541;-76
2023/07/16 06:30:05;;;;;;;13.10;12.00;;;;;;;25.68;66.51;98662.49;225746;1279;22523;-76
2023/07/16 06:35:09;;;;;;;13.70;12.60;;;;;;;25.92;65.95;98669.93;225892;1278;22543;-75
2023/07/16 06:40:14;;;;;;;15.60;14.10;;;;;;;26.17;65.55;98672.67;225855;1275;22540;-76
2023/07/16 06:45:32;;;;;;;;;;;;;;;;;;;;;
2023/07/16 06:50:35;;;;;;;14.40;13.20;;;;;;;26.69;64.55;98690.86;225863;1275;22569;-76
2023/07/16 06:55:54;;;;;;;;;;;;;;;26.81;64.06;98695.98;225807;1280;22529;-75
2023/07/16 07:00:56;;;;;;;14.50;13.40;;;;;;;26.94;63.91;98694.52;225940;1278;22532;-75
2023/07/16 07:06:01;;;;;;;14.00;12.80;;;;;;;27.10;63.86;98692.69;225650;1280;22532;-75
2023/07/16 07:11:04;;;;;;;14.40;13.00;;;;;;;27.30;63.78;98690.11;225944;1278;22536;-75
2023/07/16 07:16:06;;;;;;;14.10;13.10;;;;;;;27.49;63.50;98689.60;225806;1278;22543;-75
2023/07/16 07:21:08;;;;;;;14.10;13.00;;;;;;;27.66;63.20;98685.55;225762;1280;22646;-75
2023/07/16 07:26:11;;;;;;;14.00;13.00;;;;;;;27.83;62.95;98693.66;225684;1280;22533;-74
2023/07/16 07:31:13;;;;;;;13.20;12.20;;;;;;;28.00;62.82;98692.61;225738;1280;25494;-75
2023/07/16 07:36:15;;;;;;;13.70;12.70;;;;;;;28.19;62.46;98695.11;225763;1280;22643;-74
2023/07/16 07:41:18;;;;;;;13.00;12.00;;;;;;;28.39;62.32;98692.64;225911;1280;22546;-75
2023/07/16 07:46:20;;;;;;;13.60;12.60;;;;;;;28.57;61.55;98698.33;225938;1278;22646;-75
2023/07/16 07:51:22;;;;;;;12.40;11.50;;;;;;;28.70;61.23;98691.16;225990;1276;22524;-75
2023/07/16 07:56:24;;;;;;;13.00;12.00;;;;;;;28.90;61.02;98690.92;225843;1275;22544;-76
2023/07/16 08:01:27;;;;;;;12.50;11.60;;;;;;;29.21;61.12;98687.47;225821;1278;22533;-76
2023/07/16 08:06:32;;;;;;;12.70;11.70;;;;;;;29.50;59.92;98685.34;225867;1269;22540;-76
2023/07/16 08:11:34;;;;;;;12.80;11.90;;;;;;;29.84;59.50;98687.23;225770;1280;25227;-76
2023/07/16 08:16:37;;;;;;;13.20;12.30;;;;;;;30.23;58.78;98684.89;225809;1278;22557;-75
2023/07/16 08:21:43;;;;;;;12.90;11.60;;;;;;;30.58;58.71;98687.81;225799;1280;22548;-77
2023/07/16 08:26:54;;;;;;;13.00;11.90;;;;;;;30.67;57.43;98686.21;225872;1278;22593;-76
2023/07/16 08:31:57;;;;;;;10.70;9.90;;;;;;;30.49;57.37;98687.81;225775;1280;24160;-75
2023/07/16 08:37:02;;;;;;;8.40;7.70;;;;;;;30.36;56.90;98691.87;225930;1280;22532;-75
2023/07/16 08:42:05;;;;;;;8.30;7.50;;;;;;;30.42;56.48;98689.59;225769;1275;22566;-74
2023/07/16 08:47:07;;;;;;;8.40;7.60;;;;;;;30.43;55.71;98698.19;225791;1278;22545;-76
2023/07/16 08:52:18;;;;;;;8.40;7.60;;;;;;;30.39;55.93;98698.90;225817;1278;22603;-76
2023/07/16 08:57:24;;;;;;;9.30;8.30;;;;;;;30.46;55.76;98702.02;225729;1280;22633;-76
2023/07/16 09:02:27;;;;;;;8.50;7.70;;;;;;;30.74;55.98;98695.92;225746;1278;22533;-76
2023/07/16 09:07:29;;;;;;;8.90;8.10;;;;;;;30.93;55.45;98694.08;225783;1278;22971;-75
2023/07/16 09:12:34;;;;;;;9.10;8.20;;;;;;;31.15;55.04;98693.48;225802;1280;22602;-75
2023/07/16 09:17:38;;;;;;;9.00;8.20;;;;;;;31.27;54.37;98688.73;225902;1278;22530;-75
2023/07/16 09:22:40;;;;;;;7.90;7.20;;;;;;;31.38;54.44;98688.11;225904;1276;22571;-74
2023/07/16 09:27:42;;;;;;;6.80;6.30;;;;;;;31.44;53.55;98691.95;225806;1278;22536;-75
2023/07/16 09:32:45;;;;;;;8.20;5.50;;;;;;;31.54;52.85;98695.73;225799;1273;22544;-75
2023/07/16 09:37:48;;;;;;;6.80;6.30;;;;;;;31.64;52.20;98696.94;225839;1278;22649;-75
2023/07/16 09:42:51;;;;;;;6.90;6.40;;;;;;;31.65;51.55;98702.49;225977;1278;22539;-75
2023/07/16 09:47:53;;;;;;;7.20;6.60;;;;;;;31.69;51.68;98706.27;225913;1278;23319;-75
2023/07/16 09:52:57;;;;;;;6.60;6.00;;;;;;;31.73;51.17;98708.51;225945;1275;22547;-76
2023/07/16 09:58:01;;;;;;;7.00;6.30;;;;;;;31.76;50.76;98708.75;225769;1278;22537;-75
2023/07/16 10:03:07;;;;;;;6.20;5.80;;;;;;;31.84;50.76;98712.59;225992;1278;22577;-75
2023/07/16 10:08:19;;;;;;;6.40;5.90;;;;;;;31.86;50.73;98708.02;225854;1278;22544;-75
2023/07/16 10:13:23;;;;;;;7.10;6.00;;;;;;;31.81;51.09;98710.19;225915;1277;22615;-75
2023/07/16 10:18:30;;;;;;;5.80;5.30;;;;;;;31.95;51.05;98714.98;225930;1279;22536;-75
2023/07/16 10:23:44;;;;;;;5.90;5.10;;;;;;;31.95;50.23;98720.67;225998;1277;22560;-75
2023/07/16 10:28:46;;;;;;;5.20;4.60;;;;;;;31.89;49.94;98719.23;225813;1278;23092;-75
2023/07/16 10:33:59;;;;;;;4.90;4.50;;;;;;;31.93;49.62;98714.75;225868;1280;22547;-77
2023/07/16 10:39:03;;;;;;;5.00;4.60;;;;;;;31.93;49.25;98712.38;225835;1278;22521;-76
2023/07/16 10:44:09;;;;;;;4.60;4.30;;;;;;;31.93;49.19;98714.80;225772;1279;22529;-76
2023/07/16 10:49:15;;;;;;;5.40;4.80;;;;;;;31.91;49.01;98709.36;225741;1278;22532;-75
2023/07/16 10:54:20;;;;;;;4.60;4.30;;;;;;;31.98;49.15;98703.80;225914;1278;22543;-75
2023/07/16 10:59:25;;;;;;;;;;;;;;;32.07;49.15;98691.07;225801;1278;22524;-75
2023/07/16 11:04:33;;;;;;;6.40;6.00;;;;;;;32.17;49.10;98691.02;225789;1278;22547;-75
2023/07/16 11:09:44;;;;;;;6.00;5.40;;;;;;;32.32;49.33;98690.58;225902;1277;22556;-73
2023/07/16 11:14:48;;;;;;;6.40;6.00;;;;;;;32.43;48.75;98689.05;225705;1280;22576;-76
2023/07/16 11:20:00;;;;;;;6.80;6.30;;;;;;;32.44;48.79;98693.02;225930;1278;22533;-76
2023/07/16 11:25:02;;;;;;;7.60;7.00;;;;;;;32.61;48.53;98691.45;225771;1280;24407;-77
2023/07/16 11:30:08;;;;;;;7.40;6.80;;;;;;;32.64;48.34;98686.77;225827;1278;22542;-76
2023/07/16 11:35:16;;;;;;;7.10;6.60;;;;;;;32.75;48.55;98687.27;225918;1278;26236;-75
2023/07/16 11:40:19;;;;;;;6.70;6.30;;;;;;;32.82;47.98;98677.45;225852;1278;25295;-76
2023/07/16 11:45:28;;;;;;;7.10;6.20;;;;;;;32.94;48.13;98675.52;225861;1278;22543;-77
2023/07/16 11:50:31;;;;;;;7.20;6.70;;;;;;;33.04;47.85;98674.15;225805;1279;22531;-76
2023/07/16 11:55:33;;;;;;;6.90;6.40;;;;;;;32.94;47.56;98675.98;225943;1280;22547;-75
2023/07/16 12:00:35;;;;;;;7.20;6.60;;;;;;;32.73;47.67;98665.73;225917;1279;22537;-76
2023/07/16 12:05:38;;;;;;;7.40;6.80;;;;;;;32.79;47.82;98654.27;225861;1278;22528;-75
2023/07/16 12:10:55;;;;;;;7.50;6.90;;;;;;;33.01;48.01;98644.73;225756;1279;21771;-75
2023/07/16 12:15:59;;;;;;;7.40;6.70;;;;;;;33.12;47.39;98644.86;225795;1278;22650;-74
2023/07/16 12:21:02;;;;;;;7.20;6.50;;;;;;;33.30;47.49;98640.94;225786;1278;22558;-75
2023/07/16 12:26:05;;;;;;;7.00;6.50;;;;;;;33.42;47.15;98628.80;225738;1280;22541;-75
2023/07/16 12:31:07;;;;;;;7.20;6.60;;;;;;;33.49;47.04;98629.13;225814;1280;22556;-75
2023/07/16 12:36:10;;;;;;;7.00;6.50;;;;;;;33.73;46.99;98633.35;225702;1280;22550;-75
2023/07/16 12:41:14;;;;;;;8.00;7.40;;;;;;;33.96;46.22;98633.52;225948;1278;24210;-75
2023/07/16 12:46:19;;;;;;;7.50;6.80;;;;;;;34.07;45.99;98636.41;225812;1276;23151;-75
2023/07/16 12:51:22;;;;;;;7.80;7.10;;;;;;;34.21;45.94;98636.54;225920;1280;22547;-75
2023/07/16 12:56:24;;;;;;;8.30;7.70;;;;;;;34.34;45.80;98638.11;225919;1278;25265;-75
2023/07/16 13:01:26;;;;;;;8.70;7.80;;;;;;;34.36;45.15;98637.61;225892;1279;22545;-75
2023/07/16 13:06:28;;;;;;;8.10;7.40;;;;;;;34.41;45.49;98632.89;225822;1278;22547;-76
2023/07/16 13:11:30;;;;;;;8.30;7.50;;;;;;;34.49;45.87;98627.55;225863;1280;22544;-74
2023/07/16 13:16:32;;;;;;;7.90;7.30;;;;;;;34.63;45.42;98622.70;225941;1278;22559;-76
2023/07/16 13:21:34;;;;;;;8.40;7.70;;;;;;;34.88;45.34;98630.38;225846;1278;22546;-75
2023/07/16 13:26:36;;;;;;;8.40;7.80;;;;;;;35.20;45.02;98631.77;225781;1280;22537;-74
2023/07/16 13:31:38;;;;;;;7.90;7.30;;;;;;;35.28;44.54;98625.61;225899;1279;24385;-76
2023/07/16 13:36:40;;;;;;;7.50;7.00;;;;;;;35.40;44.95;98622.45;225894;1280;22558;-76
2023/07/16 13:41:42;;;;;;;8.20;7.60;;;;;;;35.48;44.79;98634.58;225976;1280;22560;-76
2023/07/16 13:46:45;;;;;;;8.20;7.50;;;;;;;35.36;44.32;98638.84;225773;1279;22544;-76
2023/07/16 13:51:46;;;;;;;8.50;7.70;;;;;;;34.92;44.42;98642.02;225903;1279;25259;-76
2023/07/16 13:56:49;;;;;;;8.10;7.50;;;;;;;34.57;45.14;98646.61;225848;1281;22722;-75
2023/07/16 14:02:00;;;;;;;8.40;7.70;;;;;;;34.30;45.46;98646.84;225935;1279;22556;-75
2023/07/16 14:07:04;;;;;;;8.30;7.60;;;;;;;34.06;45.75;98642.56;225892;1274;22543;-76
2023/07/16 14:12:07;;;;;;;8.20;7.50;;;;;;;33.87;46.22;98643.98;225783;1279;22543;-77
2023/07/16 14:17:09;;;;;;;9.00;8.20;;;;;;;33.62;46.39;98644.16;225838;1280;22543;-75
2023/07/16 14:22:13;;;;;;;9.30;8.60;;;;;;;33.39;46.55;98647.59;225800;1281;22542;-76
2023/07/16 14:27:15;;;;;;;10.10;9.30;;;;;;;33.23;46.75;98647.96;225929;1278;25220;-75
2023/07/16 14:32:17;;;;;;;10.60;9.80;;;;;;;33.13;47.82;98648.26;225919;1277;22580;-74
2023/07/16 14:37:19;;;;;;;9.50;8.70;;;;;;;33.24;48.05;98640.13;225806;1278;22543;-75
2023/07/16 14:42:22;;;;;;;9.90;9.10;;;;;;;33.27;47.97;98640.21;225785;1279;22571;-75
2023/07/16 14:47:24;;;;;;;8.80;8.20;;;;;;;33.18;48.10;98642.34;225825;1278;22555;-75
2023/07/16 14:52:26;;;;;;;9.20;8.40;;;;;;;33.06;48.25;98638.84;225801;1279;22543;-75
2023/07/16 14:57:28;;;;;;;8.50;7.90;;;;;;;32.87;48.21;98637.42;225755;1280;22539;-74
2023/07/16 15:02:30;;;;;;;8.60;7.90;;;;;;;32.71;48.41;98637.77;225751;1275;22540;-75
2023/07/16 15:07:34;;;;;;;8.90;8.00;;;;;;;32.70;48.48;98626.10;225914;1280;22575;-76
2023/07/16 15:12:36;;;;;;;8.40;7.70;;;;;;;32.78;48.24;98614.29;225913;1278;22560;-75
2023/07/16 15:17:38;;;;;;;8.40;7.80;;;;;;;32.78;48.12;98608.25;225773;1278;23023;-75
2023/07/16 15:22:41;;;;;;;8.60;7.70;;;;;;;32.71;48.02;98619.85;225811;1273;22551;-75
2023/07/16 15:27:43;;;;;;;8.60;8.00;;;;;;;32.64;48.24;98629.31;225794;1281;22543;-76
2023/07/16 15:32:45;;;;;;;9.10;8.20;;;;;;;32.56;48.25;98628.41;225622;1280;22557;-75
2023/07/16 15:37:48;;;;;;;9.40;8.70;;;;;;;32.50;48.15;98619.98;225764;1279;25274;-76
2023/07/16 15:42:52;;;;;;;9.80;9.10;;;;;;;32.50;48.49;98615.60;225688;1279;22556;-76
2023/07/16 15:47:58;;;;;;;10.50;9.70;;;;;;;32.56;48.84;98618.30;225825;1280;22543;-75
2023/07/16 15:53:00;;;;;;;9.80;9.10;;;;;;;32.83;49.29;98623.04;225893;1280;22649;-75
2023/07/16 15:58:03;;;;;;;10.50;9.60;;;;;;;33.20;48.91;98627.74;225879;1281;22558;-75
2023/07/16 16:03:05;;;;;;;10.80;10.00;;;;;;;33.47;48.38;98628.58;225792;1279;22574;-76
2023/07/16 16:08:13;;;;;;;9.60;8.80;;;;;;;33.43;47.75;98629.20;225639;1281;22551;-75
2023/07/16 16:13:16;;;;;;;10.50;9.70;;;;;;;33.31;47.51;98632.06;225864;1277;22623;-75
2023/07/16 16:18:19;;;;;;;10.70;9.70;;;;;;;33.18;47.63;98637.55;225889;1276;22567;-75
2023/07/16 16:23:21;;;;;;;9.90;9.10;;;;;;;33.08;47.97;98644.94;225645;1281;22587;-75
2023/07/16 16:28:23;;;;;;;10.30;9.40;;;;;;;32.91;48.13;98648.34;225806;1273;22548;-76
2023/07/16 16:33:25;;;;;;;10.10;9.20;;;;;;;32.65;48.23;98647.55;225862;1281;22556;-75
2023/07/16 16:38:27;;;;;;;10.30;9.50;;;;;;;32.30;48.41;98652.06;225842;1280;22590;-75
2023/07/16 16:43:30;;;;;;;9.80;9.00;;;;;;;31.94;48.98;98653.46;225864;1279;22911;-75
2023/07/16 16:48:35;;;;;;;10.00;9.20;;;;;;;31.64;49.53;98652.97;225842;1277;22546;-76
2023/07/16 16:53:38;;;;;;;10.00;9.10;;;;;;;31.36;50.01;98653.48;225804;1280;22547;-75
2023/07/16 16:58:41;;;;;;;7.00;6.40;;;;;;;31.16;50.66;98664.50;225778;1279;22543;-76
2023/07/16 17:03:43;;;;;;;6.10;5.50;;;;;;;30.76;51.75;98670.25;225804;1273;22549;-75
2023/07/16 17:08:45;;;;;;;5.30;4.80;;;;;;;30.45;52.59;98672.65;225798;1275;25395;-74
2023/07/16 17:13:47;;;;;;;4.80;4.40;;;;;;;30.22;53.29;98679.63;225794;1280;22543;-75
2023/07/16 17:18:49;;;;;;;5.60;4.60;;;;;;;29.97;53.61;98674.55;225793;1280;22915;-75
2023/07/16 17:23:57;;;;;;;27.30;24.80;;;;;;;29.94;54.45;98675.60;225832;1273;22571;-74
2023/07/16 17:28:59;;;;;;;6.00;4.40;;;;;;;29.96;54.12;98682.30;225851;1277;23764;-74
2023/07/16 17:34:02;;;;;;;4.60;3.60;;;;;;;29.64;54.21;98684.02;225710;1280;22539;-74
2023/07/16 17:39:04;;;;;;;4.10;3.70;;;;;;;29.45;54.30;98693.42;225758;1276;22543;-74
2023/07/16 17:44:07;;;;;;;4.40;3.60;;;;;;;29.08;54.48;98692.10;225579;1280;22554;-74
2023/07/16 17:49:09;;;;;;;4.40;3.90;;;;;;;28.71;55.10;98692.40;225762;1280;24660;-74
2023/07/16 17:54:11;;;;;;;3.90;3.60;;;;;;;28.36;55.88;98701.20;225777;1277;24909;-74
2023/07/16 17:59:16;;;;;;;4.10;3.70;;;;;;;28.06;56.47;98711.02;225689;1275;22575;-74
2023/07/16 18:04:18;;;;;;;7.10;4.30;;;;;;;27.78;57.09;98710.83;225737;1278;22544;-74
2023/07/16 18:09:23;;;;;;;4.30;3.80;;;;;;;27.53;57.63;98714.34;225687;1280;22553;-74
2023/07/16 18:14:25;;;;;;;4.50;4.20;;;;;;;27.28;58.39;98717.66;225810;1277;22548;-76
2023/07/16 18:19:27;;;;;;;4.80;4.40;;;;;;;27.04;58.76;98711.95;225843;1278;22547;-75
2023/07/16 18:24:30;;;;;;;4.40;4.00;;;;;;;26.83;59.33;98716.86;225676;1278;210162;-74
2023/07/16 18:29:33;;;;;;;4.60;4.20;;;;;;;26.66;59.84;98726.52;225851;1277;22563;-75
2023/07/16 18:34:35;;;;;;;6.50;4.90;;;;;;;26.50;60.21;98722.32;225839;1278;22657;-75
2023/07/16 18:39:38;;;;;;;4.50;4.20;;;;;;;26.36;60.60;98722.41;225638;1280;23312;-74
2023/07/16 18:44:42;;;;;;;5.00;4.50;;;;;;;26.25;61.04;98720.20;225849;1278;23066;-74
2023/07/16 18:49:44;;;;;;;4.80;4.40;;;;;;;26.17;61.28;98729.02;225768;1270;22560;-75
2023/07/16 18:54:49;;;;;;;4.90;4.50;;;;;;;26.12;61.64;98731.59;225844;1274;22574;-75
2023/07/16 18:59:52;;;;;;;9.40;8.50;;;;;;;26.07;62.02;98741.57;225850;1277;22530;-75
2023/07/16 19:05:04;;;;;;;5.70;5.10;;;;;;;26.00;62.16;98740.29;225845;1278;22539;-75
2023/07/16 19:10:14;;;;;;;5.60;5.20;;;;;;;25.91;62.44;98747.83;225800;1276;22563;-75
2023/07/16 19:15:16;;;;;;;5.80;5.30;;;;;;;25.79;62.75;98754.40;225633;1277;22697;-75
2023/07/16 19:20:18;;;;;;;5.20;4.80;;;;;;;25.64;63.12;98753.90;225640;1279;22547;-75
2023/07/16 19:25:20;;;;;;;5.50;5.10;;;;;;;25.50;63.37;98752.12;225801;1277;22526;-75
2023/07/16 19:30:22;;;;;;;5.50;4.80;;;;;;;25.37;63.44;98759.44;225814;1280;22539;-74
2023/07/16 19:35:24;;;;;;;5.30;4.80;;;;;;;25.23;63.79;98764.81;225805;1280;22566;-75
2023/07/16 19:40:26;;;;;;;5.30;4.80;;;;;;;25.11;64.09;98772.77;225829;1277;22580;-74
2023/07/16 19:45:29;;;;;;;5.10;4.70;;;;;;;25.00;64.47;98775.66;225764;1278;22575;-74
2023/07/16 19:50:31;;;;;;;5.40;5.00;;;;;;;24.88;65.05;98773.18;225708;1278;25248;-75
2023/07/16 19:55:36;;;;;;;7.00;5.70;;;;;;;24.75;65.68;98779.64;225799;1278;22546;-75
2023/07/16 20:00:39;;;;;;;8.20;6.50;;;;;;;24.61;66.22;98787.52;225799;1279;22547;-75
2023/07/16 20:05:43;;;;;;;6.60;6.00;;;;;;;24.48;66.58;98791.70;225645;1280;22565;-74
2023/07/16 20:10:47;;;;;;;8.00;6.90;;;;;;;24.37;67.08;98787.97;225800;1277;22539;-73
2023/07/16 20:15:52;;;;;;;7.10;6.40;;;;;;;24.24;67.54;98786.12;225781;1278;22532;-75
2023/07/16 20:20:55;;;;;;;7.30;6.10;;;;;;;24.13;67.79;98787.55;225705;1280;22610;-74
2023/07/16 20:25:58;;;;;;;6.20;5.70;;;;;;;23.99;68.05;98794.46;225846;1277;22539;-74
2023/07/16 20:31:05;;;;;;;6.70;6.10;;;;;;;23.84;68.25;98796.88;225815;1276;22570;-75
2023/07/16 20:36:10;;;;;;;8.10;7.00;;;;;;;23.69;68.76;98797.07;225845;1280;22552;-75
2023/07/16 20:41:15;;;;;;;8.30;6.40;;;;;;;23.54;69.13;98807.83;225792;1280;22540;-74
2023/07/16 20:46:18;;;;;;;7.60;6.90;;;;;;;23.40;69.55;98809.75;225802;1280;25154;-74
2023/07/16 20:51:21;;;;;;;6.10;5.60;;;;;;;23.27;70.17;98804.85;225795;1278;22552;-75
2023/07/16 20:56:24;;;;;;;6.40;5.80;;;;;;;23.16;70.41;98806.13;225782;1275;22539;-75
2023/07/16 21:01:27;;;;;;;6.70;5.80;;;;;;;23.07;70.73;98807.54;225765;1278;22552;-74
2023/07/16 21:06:29;;;;;;;6.20;5.70;;;;;;;22.99;70.93;98802.95;225674;1280;22576;-75
2023/07/16 21:11:31;;;;;;;5.60;5.10;;;;;;;22.92;71.30;98797.55;225770;1275;22551;-75
2023/07/16 21:16:47;;;;;;;5.80;5.30;;;;;;;22.87;71.60;98797.59;225796;1276;22664;-75
2023/07/16 21:21:52;;;;;;;6.00;5.50;;;;;;;22.81;71.76;98796.67;225823;1280;22571;-75
2023/07/16 21:26:54;;;;;;;6.00;5.10;;;;;;;22.75;72.04;98797.32;225623;1280;22549;-74
2023/07/16 21:32:00;;;;;;;6.00;5.50;;;;;;;22.67;72.25;98792.24;225847;1278;22558;-75
2023/07/16 21:37:22;;;;;;;6.20;5.30;;;;;;;22.58;72.40;98795.02;225702;1280;22636;-74
2023/07/16 21:42:28;;;;;;;7.30;5.10;;;;;;;22.53;72.73;98792.59;225828;1280;22547;-75
2023/07/16 21:47:34;;;;;;;5.60;5.20;;;;;;;22.48;72.89;98787.08;225844;1278;22564;-75
2023/07/16 21:52:38;;;;;;;7.00;5.40;;;;;;;22.44;73.11;98789.20;225870;1278;22588;-75
2023/07/16 21:57:48;;;;;;;5.70;5.30;;;;;;;22.41;73.23;98798.30;225880;1273;22543;-75
2023/07/16 22:02:51;;;;;;;5.50;5.00;;;;;;;22.37;73.26;98789.36;225885;1276;22569;-75
2023/07/16 22:07:53;;;;;;;6.20;5.70;;;;;;;22.33;73.46;98795.27;225884;1277;22571;-74
2023/07/16 22:12:55;;;;;;;5.90;5.40;;;;;;;22.29;73.55;98801.23;225830;1277;22557;-75
2023/07/16 22:18:00;;;;;;;5.50;5.10;;;;;;;22.24;73.66;98811.17;225804;1278;22558;-75
2023/07/16 22:23:03;;;;;;;5.60;5.20;;;;;;;22.20;73.83;98812.45;225823;1277;22547;-75
2023/07/16 22:28:05;;;;;;;5.60;5.10;;;;;;;22.16;73.97;98820.66;225678;1277;22655;-75
2023/07/16 22:33:08;;;;;;;5.50;5.00;;;;;;;22.11;74.17;98838.51;225687;1279;22545;-75
2023/07/16 22:38:10;;;;;;;6.00;5.30;;;;;;;22.07;74.31;98851.74;225889;1274;23059;-75
2023/07/16 22:43:17;;;;;;;6.50;5.10;;;;;;;22.05;74.44;98851.66;225860;1275;25242;-75
2023/07/16 22:48:24;;;;;;;;;;;;;;;22.01;74.52;98852.05;225939;1273;22540;-75
2023/07/16 22:54:09;;;;;;;5.40;5.00;;;;;;;21.96;74.63;98848.61;225861;1278;22552;-74
2023/07/16 22:59:17;;;;;;;5.50;5.00;;;;;;;21.88;74.90;98847.27;225875;1280;22536;-75
2023/07/16 23:04:48;;;;;;;7.00;5.50;;;;;;;21.82;75.07;98843.52;225901;1280;22543;-74
2023/07/16 23:09:53;;;;;;;5.90;5.30;;;;;;;21.76;75.06;98840.85;225901;1277;24261;-74
2023/07/16 23:14:58;;;;;;;6.10;5.60;;;;;;;21.70;75.30;98839.94;225717;1280;22539;-75
2023/07/16 23:20:11;;;;;;;6.30;5.70;;;;;;;21.64;75.37;98840.14;225897;1276;22540;-75
2023/07/16 23:25:14;;;;;;;5.50;5.00;;;;;;;21.58;75.60;98836.84;225707;1280;22548;-75
2023/07/16 23:30:20;;;;;;;6.90;6.20;;;;;;;21.53;75.78;98832.71;225930;1280;22555;-75
2023/07/16 23:35:43;;;;;;;8.40;7.60;;;;;;;21.46;75.97;98832.14;225800;1280;25325;-75